sensor_id;sensor_type;location;lat;lon;timestamp;pressure;altitude;pressure_sealevel;temperature;humidity
22283;BME280;11310;51.528;21.204;2023-03-19T00:01:08;100192.03;;;4.55;73.03
22283;BME280;11310;51.528;21.204;2023-03-19T00:03:37;100187.78;;;4.51;73.68
22283;BME280;11310;51.528;21.204;2023-03-19T00:06:06;100186.13;;;4.47;74.06
22283;BME280;11310;51.528;21.204;2023-03-19T00:08:36;100182.69;;;4.45;73.96
22283;BME280;11310;51.528;21.204;2023-03-19T00:11:05;100192.28;;;4.41;73.97
22283;BME280;11310;51.528;21.204;2023-03-19T00:13:34;100186.31;;;4.38;74.13
22283;BME280;11310;51.528;21.204;2023-03-19T00:16:03;100188.06;;;4.36;74.48
22283;BME280;11310;51.528;21.204;2023-03-19T00:18:33;100191.50;;;4.38;73.97
22283;BME280;11310;51.528;21.204;2023-03-19T00:21:01;100185.38;;;4.42;74.56
22283;BME280;11310;51.528;21.204;2023-03-19T00:23:30;100186.22;;;4.41;74.02
22283;BME280;11310;51.528;21.204;2023-03-19T00:25:59;100182.03;;;4.35;74.15
22283;BME280;11310;51.528;21.204;2023-03-19T00:28:28;100183.03;;;4.27;74.29
22283;BME280;11310;51.528;21.204;2023-03-19T00:30:57;100178.78;;;4.23;74.78
22283;BME280;11310;51.528;21.204;2023-03-19T00:33:25;100184.03;;;4.21;74.95
22283;BME280;11310;51.528;21.204;2023-03-19T00:35:54;100183.19;;;4.18;74.93
22283;BME280;11310;51.528;21.204;2023-03-19T00:38:22;100175.50;;;4.13;74.94
22283;BME280;11310;51.528;21.204;2023-03-19T00:40:51;100172.97;;;4.09;75.43
22283;BME280;11310;51.528;21.204;2023-03-19T00:43:21;100169.59;;;4.04;75.36
22283;BME280;11310;51.528;21.204;2023-03-19T00:45:49;100173.22;;;3.97;75.93
22283;BME280;11310;51.528;21.204;2023-03-19T00:48:19;100179.41;;;3.88;76.03
22283;BME280;11310;51.528;21.204;2023-03-19T00:50:48;100178.72;;;3.79;76.65
22283;BME280;11310;51.528;21.204;2023-03-19T00:53:16;100172.78;;;3.71;77.06
22283;BME280;11310;51.528;21.204;2023-03-19T00:55:45;100174.59;;;3.66;77.27
22283;BME280;11310;51.528;21.204;2023-03-19T00:58:13;100170.28;;;3.65;77.34
22283;BME280;11310;51.528;21.204;2023-03-19T01:00:43;100168.63;;;3.61;77.72
22283;BME280;11310;51.528;21.204;2023-03-19T01:03:14;100167.84;;;3.56;77.62
22283;BME280;11310;51.528;21.204;2023-03-19T01:05:46;100172.19;;;3.54;77.57
22283;BME280;11310;51.528;21.204;2023-03-19T01:08:15;100175.69;;;3.50;77.82
22283;BME280;11310;51.528;21.204;2023-03-19T01:10:44;100181.78;;;3.47;78.29
22283;BME280;11310;51.528;21.204;2023-03-19T01:13:13;100181.88;;;3.41;78.70
22283;BME280;11310;51.528;21.204;2023-03-19T01:15:44;100183.72;;;3.33;78.59
22283;BME280;11310;51.528;21.204;2023-03-19T01:18:13;100182.94;;;3.28;79.03
22283;BME280;11310;51.528;21.204;2023-03-19T01:20:42;100175.25;;;3.24;79.30
22283;BME280;11310;51.528;21.204;2023-03-19T01:23:11;100183.16;;;3.15;79.65
22283;BME280;11310;51.528;21.204;2023-03-19T01:25:40;100182.34;;;3.10;79.56
22283;BME280;11310;51.528;21.204;2023-03-19T01:28:08;100178.13;;;3.03;79.87
22283;BME280;11310;51.528;21.204;2023-03-19T01:30:38;100183.38;;;2.97;80.06
22283;BME280;11310;51.528;21.204;2023-03-19T01:33:29;100184.28;;;2.94;80.12
22283;BME280;11310;51.528;21.204;2023-03-19T01:36:09;100185.19;;;2.92;80.79
22283;BME280;11310;51.528;21.204;2023-03-19T01:38:52;100191.28;;;2.89;80.80
22283;BME280;11310;51.528;21.204;2023-03-19T01:41:21;100191.28;;;2.88;80.81
22283;BME280;11310;51.528;21.204;2023-03-19T01:43:58;100188.72;;;2.85;81.10
22283;BME280;11310;51.528;21.204;2023-03-19T01:46:38;100191.31;;;2.83;81.11
22283;BME280;11310;51.528;21.204;2023-03-19T01:49:35;100186.22;;;2.77;81.39
22283;BME280;11310;51.528;21.204;2023-03-19T01:52:17;100188.88;;;2.73;82.07
22283;BME280;11310;51.528;21.204;2023-03-19T01:55:04;100190.63;;;2.71;82.51
22283;BME280;11310;51.528;21.204;2023-03-19T01:57:54;100186.31;;;2.71;82.07
22283;BME280;11310;51.528;21.204;2023-03-19T02:00:42;100186.31;;;2.70;81.78
22283;BME280;11310;51.528;21.204;2023-03-19T02:03:11;100186.34;;;2.67;81.86
22283;BME280;11310;51.528;21.204;2023-03-19T02:05:51;100189.88;;;2.61;82.53
22283;BME280;11310;51.528;21.204;2023-03-19T02:08:22;100190.81;;;2.56;82.29
22283;BME280;11310;51.528;21.204;2023-03-19T02:10:52;100190.88;;;2.50;82.73
22283;BME280;11310;51.528;21.204;2023-03-19T02:13:22;100192.63;;;2.48;82.77
22283;BME280;11310;51.528;21.204;2023-03-19T02:15:51;100184.06;;;2.41;83.13
22283;BME280;11310;51.528;21.204;2023-03-19T02:18:21;100188.41;;;2.39;83.44
22283;BME280;11310;51.528;21.204;2023-03-19T02:20:55;100189.25;;;2.40;83.35
22283;BME280;11310;51.528;21.204;2023-03-19T02:23:33;100185.84;;;2.38;83.56
22283;BME280;11310;51.528;21.204;2023-03-19T02:26:16;100195.34;;;2.36;83.50
22283;BME280;11310;51.528;21.204;2023-03-19T02:28:50;100192.78;;;2.36;83.62
22283;BME280;11310;51.528;21.204;2023-03-19T02:31:29;100190.19;;;2.36;83.58
22283;BME280;11310;51.528;21.204;2023-03-19T02:33:59;100190.22;;;2.30;83.60
22283;BME280;11310;51.528;21.204;2023-03-19T02:36:31;100185.94;;;2.29;84.34
22283;BME280;11310;51.528;21.204;2023-03-19T02:39:02;100188.50;;;2.30;84.25
22283;BME280;11310;51.528;21.204;2023-03-19T02:41:36;100190.22;;;2.31;84.60
22283;BME280;11310;51.528;21.204;2023-03-19T02:44:09;100188.44;;;2.33;84.13
22283;BME280;11310;51.528;21.204;2023-03-19T02:46:39;100186.69;;;2.38;84.01
22283;BME280;11310;51.528;21.204;2023-03-19T02:49:08;100183.25;;;2.36;84.34
22283;BME280;11310;51.528;21.204;2023-03-19T02:51:38;100184.13;;;2.35;84.31
22283;BME280;11310;51.528;21.204;2023-03-19T02:54:08;100185.81;;;2.39;84.17
22283;BME280;11310;51.528;21.204;2023-03-19T02:56:39;100180.56;;;2.44;83.75
22283;BME280;11310;51.528;21.204;2023-03-19T02:59:08;100184.03;;;2.46;83.55
22283;BME280;11310;51.528;21.204;2023-03-19T03:01:37;100188.34;;;2.45;83.82
22283;BME280;11310;51.528;21.204;2023-03-19T03:04:05;100190.09;;;2.42;83.92
22283;BME280;11310;51.528;21.204;2023-03-19T03:06:34;100192.72;;;2.39;84.12
22283;BME280;11310;51.528;21.204;2023-03-19T03:09:04;100187.53;;;2.39;84.40
22283;BME280;11310;51.528;21.204;2023-03-19T03:11:32;100192.72;;;2.39;84.30
22283;BME280;11310;51.528;21.204;2023-03-19T03:14:02;100192.72;;;2.39;84.27
22283;BME280;11310;51.528;21.204;2023-03-19T03:16:31;100191.00;;;2.38;85.01
22283;BME280;11310;51.528;21.204;2023-03-19T03:19:00;100191.03;;;2.35;84.60
22283;BME280;11310;51.528;21.204;2023-03-19T03:21:28;100192.78;;;2.33;84.73
22283;BME280;11310;51.528;21.204;2023-03-19T03:23:59;100201.41;;;2.33;85.24
22283;BME280;11310;51.528;21.204;2023-03-19T03:26:27;100187.63;;;2.33;84.94
22283;BME280;11310;51.528;21.204;2023-03-19T03:28:56;100187.63;;;2.30;85.22
22283;BME280;11310;51.528;21.204;2023-03-19T03:31:26;100191.13;;;2.26;85.27
22283;BME280;11310;51.528;21.204;2023-03-19T03:33:56;100194.59;;;2.25;85.45
22283;BME280;11310;51.528;21.204;2023-03-19T03:36:24;100190.28;;;2.25;85.37
22283;BME280;11310;51.528;21.204;2023-03-19T03:38:54;100193.75;;;2.24;86.01
22283;BME280;11310;51.528;21.204;2023-03-19T03:41:23;100193.78;;;2.20;85.94
22283;BME280;11310;51.528;21.204;2023-03-19T03:43:52;100190.38;;;2.18;86.16
22283;BME280;11310;51.528;21.204;2023-03-19T03:46:21;100185.22;;;2.15;86.93
22283;BME280;11310;51.528;21.204;2023-03-19T03:48:53;100191.25;;;2.14;86.71
22283;BME280;11310;51.528;21.204;2023-03-19T03:51:22;100187.88;;;2.09;86.61
22283;BME280;11310;51.528;21.204;2023-03-19T03:53:50;100192.22;;;2.04;86.69
22283;BME280;11310;51.528;21.204;2023-03-19T03:56:19;100187.09;;;1.96;86.74
22283;BME280;11310;51.528;21.204;2023-03-19T03:58:48;100190.63;;;1.92;87.28
22283;BME280;11310;51.528;21.204;2023-03-19T04:01:18;100186.28;;;1.90;87.63
22283;BME280;11310;51.528;21.204;2023-03-19T04:03:55;100193.22;;;1.86;87.66
22283;BME280;11310;51.528;21.204;2023-03-19T04:06:26;100193.25;;;1.85;87.81
22283;BME280;11310;51.528;21.204;2023-03-19T04:09:16;100191.53;;;1.84;88.14
22283;BME280;11310;51.528;21.204;2023-03-19T04:11:46;100188.13;;;1.80;87.87
22283;BME280;11310;51.528;21.204;2023-03-19T04:14:18;100182.13;;;1.75;87.92
22283;BME280;11310;51.528;21.204;2023-03-19T04:16:46;100188.19;;;1.70;88.10
22283;BME280;11310;51.528;21.204;2023-03-19T04:19:17;100186.50;;;1.69;88.56
22283;BME280;11310;51.528;21.204;2023-03-19T04:21:47;100181.34;;;1.66;88.16
22283;BME280;11310;51.528;21.204;2023-03-19T04:24:15;100176.16;;;1.66;88.50
22283;BME280;11310;51.528;21.204;2023-03-19T04:26:45;100174.47;;;1.62;88.48
22283;BME280;11310;51.528;21.204;2023-03-19T04:29:16;100184.84;;;1.57;88.50
22283;BME280;11310;51.528;21.204;2023-03-19T04:31:45;100175.44;;;1.49;89.03
22283;BME280;11310;51.528;21.204;2023-03-19T04:34:13;100190.16;;;1.42;89.58
22283;BME280;11310;51.528;21.204;2023-03-19T04:36:43;100185.88;;;1.35;89.61
22283;BME280;11310;51.528;21.204;2023-03-19T04:39:12;100179.88;;;1.30;89.81
22283;BME280;11310;51.528;21.204;2023-03-19T04:41:42;100183.34;;;1.28;90.09
22283;BME280;11310;51.528;21.204;2023-03-19T04:44:43;100178.19;;;1.25;90.40
22283;BME280;11310;51.528;21.204;2023-03-19T04:47:12;100185.97;;;1.20;90.40
22283;BME280;11310;51.528;21.204;2023-03-19T04:49:52;100190.28;;;1.18;90.15
22283;BME280;11310;51.528;21.204;2023-03-19T04:52:24;100184.28;;;1.13;90.78
22283;BME280;11310;51.528;21.204;2023-03-19T04:54:53;100187.75;;;1.14;90.96
22283;BME280;11310;51.528;21.204;2023-03-19T04:57:22;100189.44;;;1.18;90.88
22283;BME280;11310;51.528;21.204;2023-03-19T04:59:54;100201.47;;;1.22;90.68
22283;BME280;11310;51.528;21.204;2023-03-19T05:02:23;100199.72;;;1.24;90.53
22283;BME280;11310;51.528;21.204;2023-03-19T05:04:53;100196.28;;;1.25;90.02
22283;BME280;11310;51.528;21.204;2023-03-19T05:07:24;100199.72;;;1.25;90.19
22283;BME280;11310;51.528;21.204;2023-03-19T05:09:54;100198.00;;;1.24;90.25
22283;BME280;11310;51.528;21.204;2023-03-19T05:12:22;100202.31;;;1.24;90.31
22283;BME280;11310;51.528;21.204;2023-03-19T05:14:54;100209.19;;;1.23;90.54
22283;BME280;11310;51.528;21.204;2023-03-19T05:17:31;100201.44;;;1.23;90.72
22283;BME280;11310;51.528;21.204;2023-03-19T05:20:18;100204.03;;;1.23;90.51
22283;BME280;11310;51.528;21.204;2023-03-19T05:22:55;100209.19;;;1.25;90.76
22283;BME280;11310;51.528;21.204;2023-03-19T05:25:34;100203.19;;;1.24;90.72
22283;BME280;11310;51.528;21.204;2023-03-19T05:28:07;100210.91;;;1.26;90.50
22283;BME280;11310;51.528;21.204;2023-03-19T05:30:36;100209.19;;;1.28;90.76
22283;BME280;11310;51.528;21.204;2023-03-19T05:33:14;100205.72;;;1.30;91.11
22283;BME280;11310;51.528;21.204;2023-03-19T05:35:45;100204.84;;;1.31;91.14
22283;BME280;11310;51.528;21.204;2023-03-19T05:38:47;100205.72;;;1.29;91.00
22283;BME280;11310;51.528;21.204;2023-03-19T05:41:23;100206.53;;;1.35;90.83
22283;BME280;11310;51.528;21.204;2023-03-19T05:44:00;100199.66;;;1.36;90.71
22283;BME280;11310;51.528;21.204;2023-03-19T05:46:54;100202.16;;;1.48;90.38
22283;BME280;11310;51.528;21.204;2023-03-19T05:49:26;100207.28;;;1.54;92.44
22283;BME280;11310;51.528;21.204;2023-03-19T05:51:55;100198.66;;;1.55;89.98
22283;BME280;11310;51.528;21.204;2023-03-19T05:54:25;100208.88;;;1.68;89.36
22283;BME280;11310;51.528;21.204;2023-03-19T05:57:03;100206.22;;;1.80;89.33
22283;BME280;11310;51.528;21.204;2023-03-19T05:59:45;100202.69;;;1.90;89.11
22283;BME280;11310;51.528;21.204;2023-03-19T06:02:25;100204.31;;;1.99;88.90
22283;BME280;11310;51.528;21.204;2023-03-19T06:05:09;100204.19;;;2.14;87.90
22283;BME280;11310;51.528;21.204;2023-03-19T06:07:38;100207.50;;;2.29;87.55
22283;BME280;11310;51.528;21.204;2023-03-19T06:10:15;100206.44;;;2.45;87.54
22283;BME280;11310;51.528;21.204;2023-03-19T06:12:47;100197.66;;;2.61;86.81
22283;BME280;11310;51.528;21.204;2023-03-19T06:15:32;100206.97;;;2.76;86.57
22283;BME280;11310;51.528;21.204;2023-03-19T06:18:12;100211.88;;;2.98;86.74
22283;BME280;11310;51.528;21.204;2023-03-19T06:20:41;100212.56;;;3.11;85.71
22283;BME280;11310;51.528;21.204;2023-03-19T06:23:11;100214.13;;;3.24;85.93
22283;BME280;11310;51.528;21.204;2023-03-19T06:25:43;100212.19;;;3.38;85.55
22283;BME280;11310;51.528;21.204;2023-03-19T06:28:13;100211.97;;;3.53;84.88
22283;BME280;11310;51.528;21.204;2023-03-19T06:30:44;100221.25;;;3.69;84.13
22283;BME280;11310;51.528;21.204;2023-03-19T06:33:31;100214.91;;;3.85;84.24
22283;BME280;11310;51.528;21.204;2023-03-19T06:36:00;100214.72;;;3.97;83.69
22283;BME280;11310;51.528;21.204;2023-03-19T06:38:31;100212.81;;;4.06;83.14
22283;BME280;11310;51.528;21.204;2023-03-19T06:41:02;100216.94;;;4.18;83.21
22283;BME280;11310;51.528;21.204;2023-03-19T06:43:32;100214.25;;;4.24;83.17
22283;BME280;11310;51.528;21.204;2023-03-19T06:46:04;100215.84;;;4.31;82.78
22283;BME280;11310;51.528;21.204;2023-03-19T06:48:37;100210.50;;;4.40;82.78
22283;BME280;11310;51.528;21.204;2023-03-19T06:51:05;100217.22;;;4.50;82.75
22283;BME280;11310;51.528;21.204;2023-03-19T06:53:34;100207.59;;;4.56;82.95
22283;BME280;11310;51.528;21.204;2023-03-19T06:56:04;100213.38;;;4.69;82.65
22283;BME280;11310;51.528;21.204;2023-03-19T06:58:33;100212.31;;;4.80;82.21
22283;BME280;11310;51.528;21.204;2023-03-19T07:01:02;100222.38;;;4.97;81.61
22283;BME280;11310;51.528;21.204;2023-03-19T07:03:31;100224.50;;;5.19;81.59
22283;BME280;11310;51.528;21.204;2023-03-19T07:05:59;100219.69;;;5.39;81.26
22283;BME280;11310;51.528;21.204;2023-03-19T07:08:30;100223.56;;;5.60;80.03
22283;BME280;11310;51.528;21.204;2023-03-19T07:11:04;100214.34;;;5.85;80.09
22283;BME280;11310;51.528;21.204;2023-03-19T07:13:33;100225.84;;;6.10;79.27
22283;BME280;11310;51.528;21.204;2023-03-19T07:16:02;100221.06;;;6.28;79.12
22283;BME280;11310;51.528;21.204;2023-03-19T07:18:32;100221.25;;;6.54;77.67
22283;BME280;11310;51.528;21.204;2023-03-19T07:21:01;100224.94;;;6.76;76.78
22283;BME280;11310;51.528;21.204;2023-03-19T07:23:30;100217.56;;;6.92;76.33
22283;BME280;11310;51.528;21.204;2023-03-19T07:25:59;100227.25;;;7.17;75.03
22283;BME280;11310;51.528;21.204;2023-03-19T07:28:29;100228.28;;;7.41;73.95
22283;BME280;11310;51.528;21.204;2023-03-19T07:30:58;100243.13;;;7.68;72.72
22283;BME280;11310;51.528;21.204;2023-03-19T07:33:26;100233.66;;;7.91;72.23
22283;BME280;11310;51.528;21.204;2023-03-19T07:35:55;100228.44;;;8.17;70.94
22283;BME280;11310;51.528;21.204;2023-03-19T07:38:23;100226.88;;;8.38;70.11
22283;BME280;11310;51.528;21.204;2023-03-19T07:40:52;100226.03;;;8.62;68.53
22283;BME280;11310;51.528;21.204;2023-03-19T07:43:30;100227.69;;;8.89;67.72
22283;BME280;11310;51.528;21.204;2023-03-19T07:45:59;100230.22;;;9.15;67.28
22283;BME280;11310;51.528;21.204;2023-03-19T07:48:29;100227.47;;;9.41;65.16
22283;BME280;11310;51.528;21.204;2023-03-19T07:50:58;100237.94;;;9.64;64.33
22283;BME280;11310;51.528;21.204;2023-03-19T07:53:27;100223.59;;;9.94;63.51
22283;BME280;11310;51.528;21.204;2023-03-19T07:55:56;100229.59;;;10.19;62.02
22283;BME280;11310;51.528;21.204;2023-03-19T07:58:24;100222.28;;;10.47;61.77
22283;BME280;11310;51.528;21.204;2023-03-19T08:00:54;100219.47;;;10.71;60.64
22283;BME280;11310;51.528;21.204;2023-03-19T08:03:23;100228.94;;;10.94;59.88
22283;BME280;11310;51.528;21.204;2023-03-19T08:05:53;100222.88;;;11.12;58.90
22283;BME280;11310;51.528;21.204;2023-03-19T08:08:22;100222.16;;;11.27;58.89
22283;BME280;11310;51.528;21.204;2023-03-19T08:10:52;100222.69;;;11.35;58.78
22283;BME280;11310;51.528;21.204;2023-03-19T08:13:21;100223.53;;;11.54;58.29
22283;BME280;11310;51.528;21.204;2023-03-19T08:15:49;100219.59;;;11.64;57.46
22283;BME280;11310;51.528;21.204;2023-03-19T08:18:21;100213.88;;;11.92;57.26
22283;BME280;11310;51.528;21.204;2023-03-19T08:20:50;100217.72;;;12.20;56.88
22283;BME280;11310;51.528;21.204;2023-03-19T08:23:18;100217.63;;;12.39;56.88
22283;BME280;11310;51.528;21.204;2023-03-19T08:25:47;100204.41;;;12.57;55.66
22283;BME280;11310;51.528;21.204;2023-03-19T08:28:17;100212.56;;;12.85;55.35
22283;BME280;11310;51.528;21.204;2023-03-19T08:30:46;100211.25;;;13.26;53.53
22283;BME280;11310;51.528;21.204;2023-03-19T08:33:15;100208.06;;;13.52;51.79
22283;BME280;11310;51.528;21.204;2023-03-19T08:35:46;100206.53;;;13.79;51.83
22283;BME280;11310;51.528;21.204;2023-03-19T08:38:14;100211.59;;;14.13;51.28
22283;BME280;11310;51.528;21.204;2023-03-19T08:40:43;100201.81;;;14.45;50.48
22283;BME280;11310;51.528;21.204;2023-03-19T08:43:12;100205.66;;;14.69;49.46
22283;BME280;11310;51.528;21.204;2023-03-19T08:45:41;100208.25;;;15.12;49.05
22283;BME280;11310;51.528;21.204;2023-03-19T08:48:09;100206.00;;;15.48;48.32
22283;BME280;11310;51.528;21.204;2023-03-19T08:50:38;100206.72;;;15.91;47.67
22283;BME280;11310;51.528;21.204;2023-03-19T08:53:09;100207.66;;;16.16;46.71
22283;BME280;11310;51.528;21.204;2023-03-19T08:55:37;100201.69;;;16.39;46.37
22283;BME280;11310;51.528;21.204;2023-03-19T08:58:06;100206.94;;;16.53;46.04
22283;BME280;11310;51.528;21.204;2023-03-19T09:00:35;100206.00;;;16.54;46.53
22283;BME280;11310;51.528;21.204;2023-03-19T09:03:03;100214.84;;;16.67;46.42
22283;BME280;11310;51.528;21.204;2023-03-19T09:05:34;100208.91;;;16.89;46.10
22283;BME280;11310;51.528;21.204;2023-03-19T09:08:03;100208.91;;;17.01;45.07
22283;BME280;11310;51.528;21.204;2023-03-19T09:10:33;100212.91;;;17.32;44.64
22283;BME280;11310;51.528;21.204;2023-03-19T09:13:02;100204.97;;;17.44;44.32
22283;BME280;11310;51.528;21.204;2023-03-19T09:15:32;100203.94;;;17.70;44.50
22283;BME280;11310;51.528;21.204;2023-03-19T09:18:02;100197.94;;;18.15;43.60
22283;BME280;11310;51.528;21.204;2023-03-19T09:20:30;100205.34;;;18.46;43.00
22283;BME280;11310;51.528;21.204;2023-03-19T09:22:59;100200.06;;;18.57;42.21
22283;BME280;11310;51.528;21.204;2023-03-19T09:25:28;100199.06;;;18.58;42.02
22283;BME280;11310;51.528;21.204;2023-03-19T09:27:59;100196.19;;;18.61;42.03
22283;BME280;11310;51.528;21.204;2023-03-19T09:30:27;100198.59;;;18.53;42.45
22283;BME280;11310;51.528;21.204;2023-03-19T09:32:56;100193.75;;;18.58;42.96
22283;BME280;11310;51.528;21.204;2023-03-19T09:35:25;100188.88;;;18.87;42.09
22283;BME280;11310;51.528;21.204;2023-03-19T09:37:57;100187.94;;;19.10;41.48
22283;BME280;11310;51.528;21.204;2023-03-19T09:40:29;100189.53;;;19.45;40.90
22283;BME280;11310;51.528;21.204;2023-03-19T09:43:16;100195.34;;;19.61;38.08
22283;BME280;11310;51.528;21.204;2023-03-19T09:45:48;100187.78;;;19.77;41.22
22283;BME280;11310;51.528;21.204;2023-03-19T09:48:19;100181.69;;;20.08;39.91
22283;BME280;11310;51.528;21.204;2023-03-19T09:50:55;100176.84;;;20.02;40.25
22283;BME280;11310;51.528;21.204;2023-03-19T09:53:32;100182.72;;;19.63;38.96
22283;BME280;11310;51.528;21.204;2023-03-19T09:56:07;100187.09;;;19.20;41.13
22283;BME280;11310;51.528;21.204;2023-03-19T09:58:42;100172.22;;;18.96;41.85
22283;BME280;11310;51.528;21.204;2023-03-19T10:01:23;100179.84;;;19.00;40.66
22283;BME280;11310;51.528;21.204;2023-03-19T10:04:19;100179.22;;;18.97;39.70
22283;BME280;11310;51.528;21.204;2023-03-19T10:07:05;100178.88;;;19.12;40.38
22283;BME280;11310;51.528;21.204;2023-03-19T10:09:44;100178.38;;;19.07;40.52
22283;BME280;11310;51.528;21.204;2023-03-19T10:12:25;100175.75;;;19.40;39.84
22283;BME280;11310;51.528;21.204;2023-03-19T10:15:21;100178.09;;;19.87;37.04
22283;BME280;11310;51.528;21.204;2023-03-19T10:17:56;100174.44;;;20.10;39.25
22283;BME280;11310;51.528;21.204;2023-03-19T10:20:32;100174.50;;;20.51;37.61
22283;BME280;11310;51.528;21.204;2023-03-19T10:23:30;100180.66;;;20.72;36.10
22283;BME280;11310;51.528;21.204;2023-03-19T10:26:04;100174.50;;;20.51;38.32
22283;BME280;11310;51.528;21.204;2023-03-19T10:28:33;100178.66;;;20.13;39.50
22283;BME280;11310;51.528;21.204;2023-03-19T10:31:20;100165.81;;;19.64;38.30
22283;BME280;11310;51.528;21.204;2023-03-19T10:34:00;100170.44;;;19.29;40.10
22283;BME280;11310;51.528;21.204;2023-03-19T10:36:34;100164.91;;;19.32;39.68
22283;BME280;11310;51.528;21.204;2023-03-19T10:39:04;100162.88;;;19.78;40.10
22283;BME280;11310;51.528;21.204;2023-03-19T10:41:42;100166.59;;;20.29;36.79
22283;BME280;11310;51.528;21.204;2023-03-19T10:44:24;100172.72;;;20.61;36.23
22283;BME280;11310;51.528;21.204;2023-03-19T10:46:58;100169.66;;;20.86;36.67
22283;BME280;11310;51.528;21.204;2023-03-19T10:49:27;100166.47;;;21.13;37.76
22283;BME280;11310;51.528;21.204;2023-03-19T10:51:56;100169.34;;;21.40;37.14
22283;BME280;11310;51.528;21.204;2023-03-19T10:54:26;100156.56;;;21.74;36.70
22283;BME280;11310;51.528;21.204;2023-03-19T10:56:58;100149.28;;;21.95;36.33
22283;BME280;11310;51.528;21.204;2023-03-19T10:59:31;100146.78;;;22.03;36.00
22283;BME280;11310;51.528;21.204;2023-03-19T11:02:13;100141.72;;;22.28;34.99
22283;BME280;11310;51.528;21.204;2023-03-19T11:04:43;100148.16;;;22.45;36.49
22283;BME280;11310;51.528;21.204;2023-03-19T11:07:14;100143.09;;;22.61;36.48
22283;BME280;11310;51.528;21.204;2023-03-19T11:09:47;100143.38;;;22.39;35.71
22283;BME280;11310;51.528;21.204;2023-03-19T11:12:18;100144.34;;;21.81;36.47
22283;BME280;11310;51.528;21.204;2023-03-19T11:14:50;100131.16;;;21.49;37.74
22283;BME280;11310;51.528;21.204;2023-03-19T11:17:24;100131.75;;;21.53;37.36
22283;BME280;11310;51.528;21.204;2023-03-19T11:19:57;100127.53;;;21.60;37.21
22283;BME280;11310;51.528;21.204;2023-03-19T11:22:27;100137.69;;;21.17;37.63
22283;BME280;11310;51.528;21.204;2023-03-19T11:25:00;100129.59;;;20.77;37.81
22283;BME280;11310;51.528;21.204;2023-03-19T11:27:31;100138.00;;;20.52;38.46
22283;BME280;11310;51.528;21.204;2023-03-19T11:30:02;100143.19;;;20.53;38.91
22283;BME280;11310;51.528;21.204;2023-03-19T11:32:58;100133.78;;;20.49;35.30
22283;BME280;11310;51.528;21.204;2023-03-19T11:35:33;100114.78;;;20.63;37.89
22283;BME280;11310;51.528;21.204;2023-03-19T11:38:12;100110.50;;;20.93;37.00
22283;BME280;11310;51.528;21.204;2023-03-19T11:40:49;100105.84;;;21.25;36.71
22283;BME280;11310;51.528;21.204;2023-03-19T11:43:50;100096.19;;;21.52;34.93
22283;BME280;11310;51.528;21.204;2023-03-19T11:46:34;100111.75;;;21.77;36.30
22283;BME280;11310;51.528;21.204;2023-03-19T11:52:59;100092.59;;;22.48;32.78
22283;BME280;11310;51.528;21.204;2023-03-19T11:55:33;100088.63;;;22.43;34.25
22283;BME280;11310;51.528;21.204;2023-03-19T11:58:20;100083.59;;;22.40;33.65
22283;BME280;11310;51.528;21.204;2023-03-19T12:00:55;100091.59;;;22.59;34.74
22283;BME280;11310;51.528;21.204;2023-03-19T12:06:34;100086.19;;;22.68;30.91
22283;BME280;11310;51.528;21.204;2023-03-19T12:09:11;100080.59;;;22.62;34.35
22283;BME280;11310;51.528;21.204;2023-03-19T12:11:48;100086.06;;;23.06;33.91
22283;BME280;11310;51.528;21.204;2023-03-19T12:14:29;100076.50;;;23.04;32.89
22283;BME280;11310;51.528;21.204;2023-03-19T12:17:16;100086.69;;;22.91;31.43
22283;BME280;11310;51.528;21.204;2023-03-19T12:20:10;100078.63;;;22.64;33.66
22283;BME280;11310;51.528;21.204;2023-03-19T12:22:44;100077.56;;;22.19;30.47
22283;BME280;11310;51.528;21.204;2023-03-19T12:25:27;100069.28;;;21.93;34.32
22283;BME280;11310;51.528;21.204;2023-03-19T12:28:02;100064.50;;;22.06;34.48
22283;BME280;11310;51.528;21.204;2023-03-19T12:30:38;100068.69;;;22.18;34.76
22283;BME280;11310;51.528;21.204;2023-03-19T12:33:17;100060.06;;;22.43;33.88
22283;BME280;11310;51.528;21.204;2023-03-19T12:35:49;100058.66;;;22.30;34.92
22283;BME280;11310;51.528;21.204;2023-03-19T12:38:23;100063.09;;;21.83;35.40
22283;BME280;11310;51.528;21.204;2023-03-19T12:40:59;100058.56;;;21.06;35.91
22283;BME280;11310;51.528;21.204;2023-03-19T12:43:33;100057.47;;;20.58;36.93
22283;BME280;11310;51.528;21.204;2023-03-19T12:46:07;100059.34;;;20.37;37.62
22283;BME280;11310;51.528;21.204;2023-03-19T12:48:41;100050.94;;;20.41;37.32
22283;BME280;11310;51.528;21.204;2023-03-19T12:51:12;100047.31;;;20.42;36.61
22283;BME280;11310;51.528;21.204;2023-03-19T12:53:47;100048.38;;;20.30;36.90
22283;BME280;11310;51.528;21.204;2023-03-19T12:56:24;100041.22;;;20.31;36.70
22283;BME280;11310;51.528;21.204;2023-03-19T12:58:59;100038.03;;;20.16;37.37
22283;BME280;11310;51.528;21.204;2023-03-19T13:01:33;100039.16;;;20.14;37.24
22283;BME280;11310;51.528;21.204;2023-03-19T13:04:05;100042.78;;;20.33;37.22
22283;BME280;11310;51.528;21.204;2023-03-19T13:06:38;100033.41;;;20.69;36.70
22283;BME280;11310;51.528;21.204;2023-03-19T13:09:13;100030.22;;;21.15;34.98
22283;BME280;11310;51.528;21.204;2023-03-19T13:11:50;100026.91;;;21.41;34.97
22283;BME280;11310;51.528;21.204;2023-03-19T13:14:25;100023.25;;;21.61;34.67
22283;BME280;11310;51.528;21.204;2023-03-19T13:17:01;100031.03;;;21.74;34.32
22283;BME280;11310;51.528;21.204;2023-03-19T13:19:42;100030.03;;;21.75;32.97
22283;BME280;11310;51.528;21.204;2023-03-19T13:22:13;100035.81;;;21.70;34.56